Stratford, Connecticut
Current Conditions -  °F | °C
As of 2:52 PM on Tuesday 21 Oct 2014 (Local Time) from KBDR Reporting Station
Overcast Overcast  
Wind Chill: 64°   Ceiling: 9500
Heat Index: 64°   Visibility: 10mi
Dew Point: 55°   Wind: 8mph
Humidity: 72%   Direction: 90°E
Pressure: 29.86"   Gusts: NA
Location:  41.2°N, 73.13°W
Report Text: KBDR 211852Z 09007KT 10SM FEW060 FEW075 OVC095 18/13 A2986 RMK AO2 SLP111 T01780128
Loading
Personal Weather Stations






























Interactive Weather Map
Tropical Storm Tracking
New forecast layout! Learn more

10-Day Weather Forecast

Advertisements
Track Severe Weather on mobile